Comfort, TX (78013)

2:04 PM CDT on August 27, 2016 (GMT -0500)
Turkey Hollow | | Change Station

Elev 1624 ft 30.08 °N, 98.85 °W | Updated 4 minutes ago

Scattered Clouds
Scattered Clouds
88.7 °F
Feels Like 96 °F
N
3.0
Wind Variable Wind from South
Gusts 5.0 mph

Today
High -- | Low -- °F
--% Chance of Precip.
Yesterday
High -- | Low -- °F
Precip. -- in
Pressure 30.03 in
Visibility 10.0 miles
Clouds Scattered Clouds 4600 ft
Scattered Clouds 5000 ft
Heat Index 96 °F
Dew Point 72 °F
Humidity 58%
Rainfall 0.00 in
Snow Depth Not available.
7:09 AM 8:02 PM
Waning Crescent, 22% visible
METAR KERV 271855Z AUTO 18005KT 10SM SCT046 SCT050 32/22 A3003 RMK AO2 T03170218
Pressure 30.03 in
Visibility 10.0 miles
Clouds Scattered Clouds 4600 ft
Scattered Clouds 5000 ft
Heat Index 96 °F
Dew Point 72 °F
Humidity 58%
Rainfall 0.00 in
Snow Depth Not available.
7:09 AM 8:02 PM
Waning Crescent, 22% visible
METAR KERV 271855Z AUTO 18005KT 10SM SCT046 SCT050 32/22 A3003 RMK AO2 T03170218

10-Day Weather Forecast

Almanac

Astronomy

Aug. 27, 2016 Rise Set
Actual Time
Civil Twilight
Nautical Twilight
Astronomical Twilight
Moon
Length of Visible Light
Length of Day
Tomorrow will be .
, % of the Moon is Illuminated

Today's Extremes

State Highs State Lows

Community

WunderPhotos

Upload Photos

1,935,399 photos uploaded!

WunderBlog® & News

Nearby

Air Quality

  Air Quality AQ Index Pollutant
Not available.

Snow Depth

Station Depth Elevation

Earthquake Activity

City Distance Mag. Time & Date
Minimum magnitude displayed is 2.5.

Coastal Water Temperatures

Place Temperature

Stations

Nearby Weather Stations

Station Location Temp. Windchill Dew Point Humidity Wind Precip. Elev Updated Type
                   

Watches & Warnings

There are currently no watches in effect.